Anna G — 5BNB4 — position and weather

sailwx.info

Track history (hours):
 
Tides and Currents Weather Stations Pressure Air Temp Water Temp Dewpoint Dewpoint Depression Visibility Wind Speed Wind Dir Waves Ship Positions

Anna G

Last reported at 2018-Jun-22 23:01 UTC. Time now 2018-Jun-22 23:01 UTC.
Position N 54°28' W 005°04'.

Length 101 m; draft 5 m.

Type: Cargo ship. MMSI: 212075000.

Date/timePositionNaut miles runAvg speedWind from/ knotsBaromVisibWave heightAir tempDewpointWater temp
2018-Jun-22 23:01N 54°28' W 005°04'510.9
2018-Jun-22 22:30N 54°33' W 005°07'510.3
2018-Jun-22 22:00N 54°38' W 005°09'510.2
2018-Jun-22 21:30N 54°43' W 005°11'510.2
2018-Jun-22 21:00N 54°48' W 005°13'510.1
2018-Jun-22 20:30N 54°53' W 005°15'510.2
2018-Jun-22 20:00N 54°58' W 005°17'510.8
2018-Jun-22 19:30N 55°04' W 005°15'510.8
2018-Jun-22 19:00N 55°09' W 005°13'711.1
2018-Jun-22 18:21N 55°16' W 005°09'2610.5
2018-Jun-22 15:53N 55°41' W 004°59'512.4
2018-Jun-22 15:30N 55°46' W 004°59'612.4
2018-Jun-22 15:00N 55°52' W 004°56'611.7
2018-Jun-22 14:30N 55°57' W 004°53'4 7.6
2018-Jun-22 14:00N 55°57' W 004°46'0 0.0
2018-Jun-22 13:28N 55°57' W 004°46'0 0.0
2018-Jun-22 12:58N 55°57' W 004°46'0 0.0
2018-Jun-22 12:22N 55°57' W 004°46'0 0.0
2018-Jun-22 12:01N 55°57' W 004°46'0 0.0
2018-Jun-22 11:27N 55°57' W 004°46'0 0.0
2018-Jun-22 10:57N 55°57' W 004°46'0 0.0
2018-Jun-22 10:27N 55°57' W 004°46'0 0.0
2018-Jun-22 09:57N 55°57' W 004°46'0 0.0
2018-Jun-22 09:27N 55°57' W 004°46'0 0.0
2018-Jun-22 08:57N 55°57' W 004°46'0 0.0
2018-Jun-22 08:30N 55°57' W 004°46'0 0.0
2018-Jun-22 08:00N 55°57' W 004°46'0 0.0
2018-Jun-22 07:30N 55°57' W 004°46'0 0.0
2018-Jun-22 06:57N 55°57' W 004°46'0 0.0
2018-Jun-22 06:27N 55°57' W 004°46'0 0.0
2018-Jun-22 06:00N 55°57' W 004°46'0 0.0
2018-Jun-22 05:27N 55°57' W 004°46'0 0.0
2018-Jun-22 05:00N 55°57' W 004°46'0 0.0
2018-Jun-22 04:30N 55°57' W 004°46'0 0.0
2018-Jun-22 04:00N 55°57' W 004°46'0 0.0
2018-Jun-22 03:30N 55°57' W 004°46'0 0.0
2018-Jun-22 02:57N 55°57' W 004°46'0 0.0
2018-Jun-22 02:27N 55°57' W 004°46'0 0.0
2018-Jun-22 01:57N 55°57' W 004°46'0 0.0
2018-Jun-22 01:30N 55°57' W 004°46'0 0.2
2018-Jun-22 01:00N 55°57' W 004°46'3 5.3
2018-Jun-22 00:30N 55°58' W 004°50'5 9.5
2018-Jun-22 00:00N 55°54' W 004°55'5 9.8
2018-Jun-21 23:30N 55°49' W 004°57'510.2
2018-Jun-21 23:00N 55°44' W 004°59'710.0
2018-Jun-21 22:18N 55°37' W 004°58'710.4
2018-Jun-21 21:37N 55°30' W 004°59'2812.1
2018-Jun-21 19:19N 55°05' W 005°20'413.1
2018-Jun-21 19:00N 55°01' W 005°23'612.7
2018-Jun-21 18:30N 54°56' W 005°28'612.7
2018-Jun-21 18:00N 54°50' W 005°33'612.1
2018-Jun-21 17:30N 54°45' W 005°38'611.3
2018-Jun-21 17:00N 54°42' W 005°47'510.6
2018-Jun-21 16:30N 54°38' W 005°53'0 0.1
2018-Jun-21 15:52N 54°38' W 005°53'0 0.0
2018-Jun-21 15:28N 54°38' W 005°53'0 0.0
2018-Jun-21 14:58N 54°38' W 005°53'0 0.0
2018-Jun-21 14:28N 54°38' W 005°53'0 0.0
2018-Jun-21 13:58N 54°38' W 005°53'0 0.0
2018-Jun-21 13:28N 54°38' W 005°53'0 0.0
2018-Jun-21 12:58N 54°38' W 005°53'0 0.0
2018-Jun-21 12:28N 54°38' W 005°53'0 0.0
2018-Jun-21 11:58N 54°38' W 005°53'0 0.0
2018-Jun-21 11:28N 54°38' W 005°53'0 0.0
2018-Jun-21 10:58N 54°38' W 005°53'0 0.0
2018-Jun-21 10:28N 54°38' W 005°53'0 0.0
2018-Jun-21 09:58N 54°38' W 005°53'0 0.0
2018-Jun-21 09:28N 54°38' W 005°53'0 0.0
2018-Jun-21 08:52N 54°38' W 005°53'0 0.0
2018-Jun-21 08:28N 54°38' W 005°53'0 0.0
2018-Jun-21 07:57N 54°38' W 005°53'3 5.3
2018-Jun-21 07:28N 54°40' W 005°50'4 9.9
2018-Jun-21 07:00N 54°42' W 005°44'510.1
2018-Jun-21 06:30N 54°44' W 005°35'510.1
2018-Jun-21 06:00N 54°42' W 005°27'510.5
2018-Jun-21 05:30N 54°38' W 005°23'510.2
2018-Jun-21 05:00N 54°33' W 005°19'510.7
2018-Jun-21 04:30N 54°28' W 005°15'611.2
2018-Jun-21 04:00N 54°23' W 005°11'611.8
2018-Jun-21 03:30N 54°17' W 005°07'712.0
2018-Jun-21 02:57N 54°12' W 005°02'4611.0
2018-Jun-20 22:44N 53°44' W 003°59'312.9
2018-Jun-20 22:30N 53°43' W 003°54'713.3
2018-Jun-20 22:00N 53°40' W 003°44'713.5
2018-Jun-20 21:30N 53°37' W 003°34'713.3
2018-Jun-20 21:00N 53°34' W 003°24'611.7
2018-Jun-20 20:30N 53°31' W 003°15'511.0
2018-Jun-20 20:00N 53°31' W 003°06'5 9.6
2018-Jun-20 19:30N 53°27' W 003°01'0 0.0
2018-Jun-20 19:00N 53°27' W 003°01'1 1.1
2018-Jun-20 18:29N 53°28' W 003°01'0 0.4
2018-Jun-20 18:00N 53°28' W 003°01'0 0.0
2018-Jun-20 17:25N 53°28' W 003°01'0 0.0
2018-Jun-20 16:58N 53°28' W 003°01'0 0.0
2018-Jun-20 16:28N 53°28' W 003°01'0 0.0
2018-Jun-20 15:58N 53°28' W 003°01'0 0.0
2018-Jun-20 15:28N 53°28' W 003°01'0 0.0
2018-Jun-20 14:58N 53°28' W 003°01'0 0.0
2018-Jun-20 14:28N 53°28' W 003°01'0 0.0
2018-Jun-20 13:58N 53°28' W 003°01'0 0.0
2018-Jun-20 13:28N 53°28' W 003°01'0 0.0
2018-Jun-20 12:58N 53°28' W 003°01'0 0.0
2018-Jun-20 12:28N 53°28' W 003°01'0 0.0
2018-Jun-20 11:58N 53°28' W 003°01'0 0.0
2018-Jun-20 11:28N 53°28' W 003°01'0 0.0
2018-Jun-20 10:58N 53°28' W 003°01'0 0.0
2018-Jun-20 10:25N 53°28' W 003°01'0 0.0
2018-Jun-20 09:58N 53°28' W 003°01'0 0.0
2018-Jun-20 09:28N 53°28' W 003°01'0 0.1
2018-Jun-20 09:00N 53°28' W 003°01'1 1.1
2018-Jun-20 08:30N 53°27' W 003°01'0 0.0
2018-Jun-20 08:00N 53°27' W 003°01'1 1.7
2018-Jun-20 07:30N 53°27' W 003°02'4 8.5
2018-Jun-20 07:00N 53°31' W 003°07'5 9.7
2018-Jun-20 06:30N 53°31' W 003°15'4 8.3
2018-Jun-20 06:00N 53°31' W 003°22'3 6.9
2018-Jun-20 05:30N 53°31' W 003°28'5 9.1
2018-Jun-20 05:00N 53°31' W 003°35'5 9.4
2018-Jun-20 04:30N 53°31' W 003°43'5 9.0
2018-Jun-20 04:00N 53°31' W 003°51'4 8.9
2018-Jun-20 03:30N 53°31' W 003°58'16210.6
2018-Jun-19 12:14N 51°51' W 007°28'312.1
2018-Jun-19 12:00N 51°50' W 007°33'612.2
2018-Jun-19 11:30N 51°48' W 007°42'612.5
2018-Jun-19 11:00N 51°47' W 007°52'612.5
2018-Jun-19 10:30N 51°46' W 008°02'612.7
2018-Jun-19 10:00N 51°46' W 008°12'510.0
2018-Jun-19 09:30N 51°50' W 008°16'3 6.6
2018-Jun-19 09:00N 51°52' W 008°20'4 7.2
2018-Jun-19 08:30N 51°54' W 008°25'0 0.0
2018-Jun-19 07:56N 51°54' W 008°25'0 0.0
2018-Jun-19 07:29N 51°54' W 008°25'0 0.0
2018-Jun-19 06:59N 51°54' W 008°25'0 0.0
2018-Jun-19 06:29N 51°54' W 008°25'0 0.0
2018-Jun-19 05:59N 51°54' W 008°25'0 0.0
2018-Jun-19 05:29N 51°54' W 008°25'0 0.0
2018-Jun-19 04:56N 51°54' W 008°25'0 0.0
2018-Jun-19 04:29N 51°54' W 008°25'0 0.0
2018-Jun-19 03:59N 51°54' W 008°25'0 0.0
2018-Jun-19 03:29N 51°54' W 008°25'0 0.0
2018-Jun-19 02:59N 51°54' W 008°25'0 0.0
2018-Jun-19 02:26N 51°54' W 008°25'0 0.0
2018-Jun-19 01:59N 51°54' W 008°25'0 0.0
2018-Jun-19 01:29N 51°54' W 008°25'0 0.0
2018-Jun-19 00:59N 51°54' W 008°25'0 0.0
2018-Jun-19 00:29N 51°54' W 008°25'0 0.0
2018-Jun-18 23:59N 51°54' W 008°25'0 0.0
2018-Jun-18 23:26N 51°54' W 008°25'0 0.0
2018-Jun-18 22:59N 51°54' W 008°25'0 0.0
2018-Jun-18 22:29N 51°54' W 008°25'0 0.0
2018-Jun-18 21:59N 51°54' W 008°25'0 0.0
2018-Jun-18 21:30N 51°54' W 008°25'2 3.9
2018-Jun-18 21:00N 51°53' W 008°22'3 6.6
2018-Jun-18 20:30N 51°51' W 008°19'2 3.6
2018-Jun-18 20:00N 51°50' W 008°16'3 5.9
2018-Jun-18 19:30N 51°47' W 008°15'3 5.5
2018-Jun-18 19:00N 51°45' W 008°12'4 7.0
2018-Jun-18 18:30N 51°45' W 008°06'4 8.1
2018-Jun-18 18:00N 51°46' W 007°60'4 8.6
2018-Jun-18 17:30N 51°48' W 007°53'5 9.1
2018-Jun-18 17:00N 51°49' W 007°46'510.4
2018-Jun-18 16:30N 51°51' W 007°38'510.9
2018-Jun-18 16:00N 51°52' W 007°30'2910.9
2018-Jun-18 13:23N 52°01' W 006°45'610.8
2018-Jun-18 12:50N 52°03' W 006°36'310.3
2018-Jun-18 12:30N 52°04' W 006°31'510.6
2018-Jun-18 12:00N 52°06' W 006°23'510.1
2018-Jun-18 11:30N 52°07' W 006°15'5 9.4
2018-Jun-18 11:00N 52°10' W 006°09'5 8.8
2018-Jun-18 10:29N 52°14' W 006°05'4 9.1
2018-Jun-18 10:00N 52°18' W 006°01'5 9.6
2018-Jun-18 09:30N 52°22' W 005°57'610.1
2018-Jun-18 08:58N 52°27' W 005°53'14 9.9
2018-Jun-18 07:31N 52°39' W 005°41'0 9.4
2018-Jun-18 07:30N 52°39' W 005°41'5 9.1
2018-Jun-18 07:00N 52°43' W 005°37'4 8.4
2018-Jun-18 06:30N 52°46' W 005°33'4 8.8
2018-Jun-18 06:00N 52°50' W 005°29'611.7
2018-Jun-18 05:30N 52°55' W 005°24'68 9.2
2018-Jun-17 22:09N 53°34' W 003°50'2 9.5
2018-Jun-17 21:54N 53°34' W 003°46'4 9.9
2018-Jun-17 21:30N 53°34' W 003°40'510.2
2018-Jun-17 21:00N 53°34' W 003°31'510.4
2018-Jun-17 20:30N 53°33' W 003°23'611.1
2018-Jun-17 20:00N 53°31' W 003°14'611.2
2018-Jun-17 19:30N 53°29' W 003°05'3 6.1
2018-Jun-17 19:00N 53°27' W 003°01'0 0.5
2018-Jun-17 18:30N 53°27' W 003°01'0 0.6
2018-Jun-17 17:59N 53°28' W 003°01'0 0.0
2018-Jun-17 17:26N 53°28' W 003°01'0 0.0
2018-Jun-17 16:59N 53°28' W 003°01'0 0.0
2018-Jun-17 16:29N 53°28' W 003°01'0 0.0
2018-Jun-17 15:59N 53°28' W 003°01'0 0.0
2018-Jun-17 15:26N 53°28' W 003°01'0 0.0
2018-Jun-17 14:59N 53°28' W 003°01'0 0.0
2018-Jun-17 14:29N 53°28' W 003°01'0 0.0
2018-Jun-17 13:56N 53°28' W 003°01'0 0.0
2018-Jun-17 13:26N 53°28' W 003°01'0 0.0
2018-Jun-17 12:59N 53°28' W 003°01'0 0.0
2018-Jun-17 12:29N 53°28' W 003°01'0 0.0
2018-Jun-17 11:59N 53°28' W 003°01'0 0.0
2018-Jun-17 11:29N 53°28' W 003°01'0 0.6
2018-Jun-17 11:00N 53°27' W 003°01'0 0.7
2018-Jun-17 10:30N 53°27' W 003°01'0 0.3
2018-Jun-17 10:00N 53°27' W 003°01'1 2.1
2018-Jun-17 09:30N 53°27' W 003°03'4 7.2
2018-Jun-17 09:00N 53°30' W 003°06'510.0
2018-Jun-17 08:30N 53°31' W 003°14'5 9.7
2018-Jun-17 08:00N 53°32' W 003°22'4 7.8
2018-Jun-17 07:30N 53°33' W 003°29'4 8.4
2018-Jun-17 07:00N 53°36' W 003°34'4 8.2
2018-Jun-17 06:30N 53°38' W 003°39'4 8.3
2018-Jun-17 06:00N 53°40' W 003°46'610.1
2018-Jun-17 05:22N 53°43' W 003°55'48 9.9
2018-Jun-17 00:31N 54°13' W 004°58'011.1
2018-Jun-17 00:30N 54°14' W 004°58'510.8
2018-Jun-17 00:01N 54°19' W 005°00'510.8
2018-Jun-16 23:31N 54°24' W 005°03'510.8
2018-Jun-16 23:01N 54°29' W 005°05'510.9
2018-Jun-16 22:31N 54°35' W 005°06'510.9
2018-Jun-16 22:01N 54°40' W 005°09'714.3
2018-Jun-16 21:31N 54°47' W 005°11'714.6
2018-Jun-16 21:01N 54°54' W 005°14'815.0
2018-Jun-16 20:29N 55°02' W 005°15'4013.2
2018-Jun-16 17:27N 55°41' W 004°60'612.8
2018-Jun-16 17:00N 55°46' W 004°58'713.2
2018-Jun-16 16:30N 55°53' W 004°56'612.2
2018-Jun-16 16:00N 55°58' W 004°50'3 5.2
2018-Jun-16 15:29N 55°57' W 004°46'0 0.0
2018-Jun-16 14:56N 55°57' W 004°46'0 0.0
2018-Jun-16 14:29N 55°57' W 004°46'0 0.0
2018-Jun-16 13:59N 55°57' W 004°46'0 0.0
2018-Jun-16 13:29N 55°57' W 004°46'0 0.0
2018-Jun-16 12:59N 55°57' W 004°46'0 0.0
2018-Jun-16 12:26N 55°57' W 004°46'0 0.0
2018-Jun-16 11:56N 55°57' W 004°46'0 0.0
2018-Jun-16 11:26N 55°57' W 004°46'0 0.0
2018-Jun-16 10:59N 55°57' W 004°46'0 0.0
2018-Jun-16 10:29N 55°57' W 004°46'0 0.0
2018-Jun-16 09:59N 55°57' W 004°46'0 0.0
2018-Jun-16 09:29N 55°57' W 004°46'0 0.0
2018-Jun-16 08:56N 55°57' W 004°46'0 0.0
2018-Jun-16 08:26N 55°57' W 004°46'0 0.0
2018-Jun-16 07:56N 55°57' W 004°46'0 0.0
2018-Jun-16 07:29N 55°57' W 004°46'0 0.0
2018-Jun-16 06:56N 55°57' W 004°46'0 0.0
2018-Jun-16 06:26N 55°57' W 004°46'0 0.0
2018-Jun-16 05:56N 55°57' W 004°46'0 0.0
2018-Jun-16 05:26N 55°57' W 004°46'0 0.0
2018-Jun-16 04:59N 55°57' W 004°46'0 0.0
2018-Jun-16 04:29N 55°57' W 004°46'0 0.0
2018-Jun-16 03:59N 55°57' W 004°46'0 0.0
2018-Jun-16 03:29N 55°57' W 004°46'0 0.0
2018-Jun-16 02:56N 55°57' W 004°46'0 0.0
2018-Jun-16 02:26N 55°57' W 004°46'0 0.0
2018-Jun-16 01:56N 55°57' W 004°46'0 0.0
2018-Jun-16 01:27N 55°57' W 004°46'2 4.0
2018-Jun-16 01:00N 55°58' W 004°49'4 8.8
2018-Jun-16 00:30N 55°55' W 004°55'511.1
2018-Jun-16 00:00N 55°50' W 004°57'510.4
2018-Jun-15 23:31N 55°45' W 004°59'4010.0
2018-Jun-15 19:32N 55°07' W 005°18'0 9.5
2018-Jun-15 19:30N 55°06' W 005°18'5 9.5
2018-Jun-15 19:00N 55°02' W 005°22'510.0
2018-Jun-15 18:30N 54°58' W 005°26'510.2
2018-Jun-15 18:01N 54°53' W 005°31'612.0
2018-Jun-15 17:30N 54°48' W 005°36'611.7
2018-Jun-15 17:00N 54°43' W 005°40'611.8
2018-Jun-15 16:30N 54°40' W 005°50'2 0.2
2018-Jun-15 02:13N 54°39' W 005°52'2 9.5
2018-Jun-15 02:00N 54°40' W 005°50'5 9.7
2018-Jun-15 01:30N 54°42' W 005°42'612.5
2018-Jun-15 01:00N 54°43' W 005°32'713.6
2018-Jun-15 00:30N 54°38' W 005°25'714.1
2018-Jun-15 00:01N 54°32' W 005°20'713.2
2018-Jun-14 23:31N 54°26' W 005°14'612.7
2018-Jun-14 23:01N 54°20' W 005°09'612.4
2018-Jun-14 22:30N 54°15' W 005°05'5211.0
2018-Jun-14 17:45N 53°43' W 003°54'312.8
2018-Jun-14 17:30N 53°41' W 003°49'612.9
2018-Jun-14 17:00N 53°38' W 003°40'713.3
2018-Jun-14 16:30N 53°35' W 003°30'612.9
2018-Jun-14 16:00N 53°33' W 003°20'5 9.5
2018-Jun-14 15:29N 53°32' W 003°12'612.3
2018-Jun-14 15:00N 53°28' W 003°03'2 3.6
2018-Jun-14 14:30N 53°27' W 003°01'0 0.1
2018-Jun-14 14:00N 53°27' W 003°01'1 1.5
2018-Jun-14 13:29N 53°28' W 003°02'0 0.1
2018-Jun-14 12:59N 53°28' W 003°02'0 0.0
2018-Jun-14 12:29N 53°28' W 003°02'0 0.0
2018-Jun-14 11:56N 53°28' W 003°02'0 0.0
2018-Jun-14 11:29N 53°28' W 003°02'0 0.0
2018-Jun-14 10:59N 53°28' W 003°02'0 0.0
2018-Jun-14 10:29N 53°28' W 003°02'0 0.0
2018-Jun-14 09:59N 53°28' W 003°02'0 0.0
2018-Jun-14 09:29N 53°28' W 003°02'0 0.0
2018-Jun-14 08:59N 53°28' W 003°02'0 0.0
2018-Jun-14 08:29N 53°28' W 003°02'0 0.0
2018-Jun-14 07:59N 53°28' W 003°02'0 0.0
2018-Jun-14 07:23N 53°28' W 003°02'0 0.0
2018-Jun-14 06:59N 53°28' W 003°02'0 0.0
2018-Jun-14 06:29N 53°28' W 003°02'0 0.0
2018-Jun-14 05:59N 53°28' W 003°02'0 0.0
2018-Jun-14 05:29N 53°28' W 003°02'0 0.0
2018-Jun-14 04:59N 53°28' W 003°02'0 0.0
2018-Jun-14 04:29N 53°28' W 003°02'0 0.0
2018-Jun-14 03:59N 53°28' W 003°02'0 0.0
2018-Jun-14 03:29N 53°28' W 003°02'0 0.0
2018-Jun-14 02:53N 53°28' W 003°02'0 0.0
2018-Jun-14 02:23N 53°28' W 003°02'0 0.0
2018-Jun-14 01:59N 53°28' W 003°02'0 0.0
2018-Jun-14 01:29N 53°28' W 003°02'0 0.0
2018-Jun-14 00:56N 53°28' W 003°02'0 0.0
2018-Jun-14 00:23N 53°28' W 003°02'0 0.0
2018-Jun-13 23:53N 53°28' W 003°02'0 0.0
2018-Jun-13 23:29N 53°28' W 003°02'0 0.0
2018-Jun-13 22:59N 53°28' W 003°02'0 0.0
2018-Jun-13 22:29N 53°28' W 003°02'0 0.0
2018-Jun-13 21:59N 53°28' W 003°02'0 0.0
2018-Jun-13 21:26N 53°28' W 003°02'0 0.0
2018-Jun-13 20:59N 53°28' W 003°02'0 0.0
2018-Jun-13 20:26N 53°28' W 003°02'0 0.0
2018-Jun-13 19:59N 53°28' W 003°02'0 0.0
2018-Jun-13 19:29N 53°28' W 003°02'0 0.0
2018-Jun-13 18:55N 53°28' W 003°02'0 0.0
2018-Jun-13 18:28N 53°28' W 003°02'0 0.0
2018-Jun-13 17:58N 53°28' W 003°02'0 0.0
2018-Jun-13 17:28N 53°28' W 003°02'0 0.0
2018-Jun-13 16:58N 53°28' W 003°02'0 0.0
2018-Jun-13 16:25N 53°28' W 003°02'0 0.0
2018-Jun-13 15:58N 53°28' W 003°02'0 0.0
2018-Jun-13 15:25N 53°28' W 003°02'0 0.0
2018-Jun-13 14:55N 53°28' W 003°02'0 0.0
2018-Jun-13 14:28N 53°28' W 003°02'0 0.0
2018-Jun-13 13:58N 53°28' W 003°02'0 0.0
2018-Jun-13 13:28N 53°28' W 003°02'0 0.0
2018-Jun-13 12:58N 53°28' W 003°02'0 0.0
2018-Jun-13 12:25N 53°28' W 003°02'0 0.0
2018-Jun-13 11:58N 53°28' W 003°02'0 0.2
2018-Jun-13 11:30N 53°28' W 003°02'1 1.5
2018-Jun-13 11:00N 53°27' W 003°01'0 0.9
2018-Jun-13 10:30N 53°27' W 003°01'3 6.2
2018-Jun-13 10:00N 53°29' W 003°05'5 9.9
2018-Jun-13 09:30N 53°31' W 003°12'511.2
2018-Jun-13 09:00N 53°31' W 003°21'5 9.7
2018-Jun-13 08:30N 53°31' W 003°29'510.2
2018-Jun-13 08:00N 53°31' W 003°38'611.1
2018-Jun-13 07:30N 53°31' W 003°47'511.0
2018-Jun-13 07:00N 53°31' W 003°56'4910.1
2018-Jun-13 02:11N 53°22' W 005°17'210.5
2018-Jun-13 01:58N 53°22' W 005°21'511.3
2018-Jun-13 01:30N 53°22' W 005°30'611.9
2018-Jun-13 01:00N 53°22' W 005°40'612.1
2018-Jun-13 00:30N 53°22' W 005°50'511.0
2018-Jun-13 00:00N 53°21' W 005°59'  
Track history (hours):
 
Tides and Currents Weather Stations Pressure Air Temp Water Temp Dewpoint Dewpoint Depression Visibility Wind Speed Wind Dir Waves Ship Positions

Anna G

Last reported at 2018-Jun-22 23:01 UTC. Time now 2018-Jun-22 23:01 UTC.
Position N 54°28' W 005°04'.

Length 101 m; draft 5 m.

Type: Cargo ship. MMSI: 212075000.

Date/timePositionNaut miles runAvg speedWind from/ knotsBaromVisibWave heightAir tempDewpointWater temp
2018-Jun-22 23:01N 54°28' W 005°04'510.9
2018-Jun-22 22:30N 54°33' W 005°07'510.3
2018-Jun-22 22:00N 54°38' W 005°09'510.2
2018-Jun-22 21:30N 54°43' W 005°11'510.2
2018-Jun-22 21:00N 54°48' W 005°13'510.1
2018-Jun-22 20:30N 54°53' W 005°15'510.2
2018-Jun-22 20:00N 54°58' W 005°17'510.8
2018-Jun-22 19:30N 55°04' W 005°15'510.8
2018-Jun-22 19:00N 55°09' W 005°13'711.1
2018-Jun-22 18:21N 55°16' W 005°09'2610.5
2018-Jun-22 15:53N 55°41' W 004°59'512.4
2018-Jun-22 15:30N 55°46' W 004°59'612.4
2018-Jun-22 15:00N 55°52' W 004°56'611.7
2018-Jun-22 14:30N 55°57' W 004°53'4 7.6
2018-Jun-22 14:00N 55°57' W 004°46'0 0.0
2018-Jun-22 13:28N 55°57' W 004°46'0 0.0
2018-Jun-22 12:58N 55°57' W 004°46'0 0.0
2018-Jun-22 12:22N 55°57' W 004°46'0 0.0
2018-Jun-22 12:01N 55°57' W 004°46'0 0.0
2018-Jun-22 11:27N 55°57' W 004°46'0 0.0
2018-Jun-22 10:57N 55°57' W 004°46'0 0.0
2018-Jun-22 10:27N 55°57' W 004°46'0 0.0
2018-Jun-22 09:57N 55°57' W 004°46'0 0.0
2018-Jun-22 09:27N 55°57' W 004°46'0 0.0
2018-Jun-22 08:57N 55°57' W 004°46'0 0.0
2018-Jun-22 08:30N 55°57' W 004°46'0 0.0
2018-Jun-22 08:00N 55°57' W 004°46'0 0.0
2018-Jun-22 07:30N 55°57' W 004°46'0 0.0
2018-Jun-22 06:57N 55°57' W 004°46'0 0.0
2018-Jun-22 06:27N 55°57' W 004°46'0 0.0
2018-Jun-22 06:00N 55°57' W 004°46'0 0.0
2018-Jun-22 05:27N 55°57' W 004°46'0 0.0
2018-Jun-22 05:00N 55°57' W 004°46'0 0.0
2018-Jun-22 04:30N 55°57' W 004°46'0 0.0
2018-Jun-22 04:00N 55°57' W 004°46'0 0.0
2018-Jun-22 03:30N 55°57' W 004°46'0 0.0
2018-Jun-22 02:57N 55°57' W 004°46'0 0.0
2018-Jun-22 02:27N 55°57' W 004°46'0 0.0
2018-Jun-22 01:57N 55°57' W 004°46'0 0.0
2018-Jun-22 01:30N 55°57' W 004°46'0 0.2
2018-Jun-22 01:00N 55°57' W 004°46'3 5.3
2018-Jun-22 00:30N 55°58' W 004°50'5 9.5
2018-Jun-22 00:00N 55°54' W 004°55'5 9.8
2018-Jun-21 23:30N 55°49' W 004°57'510.2
2018-Jun-21 23:00N 55°44' W 004°59'710.0
2018-Jun-21 22:18N 55°37' W 004°58'710.4
2018-Jun-21 21:37N 55°30' W 004°59'2812.1
2018-Jun-21 19:19N 55°05' W 005°20'413.1
2018-Jun-21 19:00N 55°01' W 005°23'612.7
2018-Jun-21 18:30N 54°56' W 005°28'612.7
2018-Jun-21 18:00N 54°50' W 005°33'612.1
2018-Jun-21 17:30N 54°45' W 005°38'611.3
2018-Jun-21 17:00N 54°42' W 005°47'510.6
2018-Jun-21 16:30N 54°38' W 005°53'0 0.1
2018-Jun-21 15:52N 54°38' W 005°53'0 0.0
2018-Jun-21 15:28N 54°38' W 005°53'0 0.0
2018-Jun-21 14:58N 54°38' W 005°53'0 0.0
2018-Jun-21 14:28N 54°38' W 005°53'0 0.0
2018-Jun-21 13:58N 54°38' W 005°53'0 0.0
2018-Jun-21 13:28N 54°38' W 005°53'0 0.0
2018-Jun-21 12:58N 54°38' W 005°53'0 0.0
2018-Jun-21 12:28N 54°38' W 005°53'0 0.0
2018-Jun-21 11:58N 54°38' W 005°53'0 0.0
2018-Jun-21 11:28N 54°38' W 005°53'0 0.0
2018-Jun-21 10:58N 54°38' W 005°53'0 0.0
2018-Jun-21 10:28N 54°38' W 005°53'0 0.0
2018-Jun-21 09:58N 54°38' W 005°53'0 0.0
2018-Jun-21 09:28N 54°38' W 005°53'0 0.0
2018-Jun-21 08:52N 54°38' W 005°53'0 0.0
2018-Jun-21 08:28N 54°38' W 005°53'0 0.0
2018-Jun-21 07:57N 54°38' W 005°53'3 5.3
2018-Jun-21 07:28N 54°40' W 005°50'4 9.9
2018-Jun-21 07:00N 54°42' W 005°44'510.1
2018-Jun-21 06:30N 54°44' W 005°35'510.1
2018-Jun-21 06:00N 54°42' W 005°27'510.5
2018-Jun-21 05:30N 54°38' W 005°23'510.2
2018-Jun-21 05:00N 54°33' W 005°19'510.7
2018-Jun-21 04:30N 54°28' W 005°15'611.2
2018-Jun-21 04:00N 54°23' W 005°11'611.8
2018-Jun-21 03:30N 54°17' W 005°07'712.0
2018-Jun-21 02:57N 54°12' W 005°02'4611.0
2018-Jun-20 22:44N 53°44' W 003°59'312.9
2018-Jun-20 22:30N 53°43' W 003°54'713.3
2018-Jun-20 22:00N 53°40' W 003°44'713.5
2018-Jun-20 21:30N 53°37' W 003°34'713.3
2018-Jun-20 21:00N 53°34' W 003°24'611.7
2018-Jun-20 20:30N 53°31' W 003°15'511.0
2018-Jun-20 20:00N 53°31' W 003°06'5 9.6
2018-Jun-20 19:30N 53°27' W 003°01'0 0.0
2018-Jun-20 19:00N 53°27' W 003°01'1 1.1
2018-Jun-20 18:29N 53°28' W 003°01'0 0.4
2018-Jun-20 18:00N 53°28' W 003°01'0 0.0
2018-Jun-20 17:25N 53°28' W 003°01'0 0.0
2018-Jun-20 16:58N 53°28' W 003°01'0 0.0
2018-Jun-20 16:28N 53°28' W 003°01'0 0.0
2018-Jun-20 15:58N 53°28' W 003°01'0 0.0
2018-Jun-20 15:28N 53°28' W 003°01'0 0.0
2018-Jun-20 14:58N 53°28' W 003°01'0 0.0
2018-Jun-20 14:28N 53°28' W 003°01'0 0.0
2018-Jun-20 13:58N 53°28' W 003°01'0 0.0
2018-Jun-20 13:28N 53°28' W 003°01'0 0.0
2018-Jun-20 12:58N 53°28' W 003°01'0 0.0
2018-Jun-20 12:28N 53°28' W 003°01'0 0.0
2018-Jun-20 11:58N 53°28' W 003°01'0 0.0
2018-Jun-20 11:28N 53°28' W 003°01'0 0.0
2018-Jun-20 10:58N 53°28' W 003°01'0 0.0
2018-Jun-20 10:25N 53°28' W 003°01'0 0.0
2018-Jun-20 09:58N 53°28' W 003°01'0 0.0
2018-Jun-20 09:28N 53°28' W 003°01'0 0.1
2018-Jun-20 09:00N 53°28' W 003°01'1 1.1
2018-Jun-20 08:30N 53°27' W 003°01'0 0.0
2018-Jun-20 08:00N 53°27' W 003°01'1 1.7
2018-Jun-20 07:30N 53°27' W 003°02'4 8.5
2018-Jun-20 07:00N 53°31' W 003°07'5 9.7
2018-Jun-20 06:30N 53°31' W 003°15'4 8.3
2018-Jun-20 06:00N 53°31' W 003°22'3 6.9
2018-Jun-20 05:30N 53°31' W 003°28'5 9.1
2018-Jun-20 05:00N 53°31' W 003°35'5 9.4
2018-Jun-20 04:30N 53°31' W 003°43'5 9.0
2018-Jun-20 04:00N 53°31' W 003°51'4 8.9
2018-Jun-20 03:30N 53°31' W 003°58'16210.6
2018-Jun-19 12:14N 51°51' W 007°28'312.1
2018-Jun-19 12:00N 51°50' W 007°33'612.2
2018-Jun-19 11:30N 51°48' W 007°42'612.5
2018-Jun-19 11:00N 51°47' W 007°52'612.5
2018-Jun-19 10:30N 51°46' W 008°02'612.7
2018-Jun-19 10:00N 51°46' W 008°12'510.0
2018-Jun-19 09:30N 51°50' W 008°16'3 6.6
2018-Jun-19 09:00N 51°52' W 008°20'4 7.2
2018-Jun-19 08:30N 51°54' W 008°25'0 0.0
2018-Jun-19 07:56N 51°54' W 008°25'0 0.0
2018-Jun-19 07:29N 51°54' W 008°25'0 0.0
2018-Jun-19 06:59N 51°54' W 008°25'0 0.0
2018-Jun-19 06:29N 51°54' W 008°25'0 0.0
2018-Jun-19 05:59N 51°54' W 008°25'0 0.0
2018-Jun-19 05:29N 51°54' W 008°25'0 0.0
2018-Jun-19 04:56N 51°54' W 008°25'0 0.0
2018-Jun-19 04:29N 51°54' W 008°25'0 0.0
2018-Jun-19 03:59N 51°54' W 008°25'0 0.0
2018-Jun-19 03:29N 51°54' W 008°25'0 0.0
2018-Jun-19 02:59N 51°54' W 008°25'0 0.0
2018-Jun-19 02:26N 51°54' W 008°25'0 0.0
2018-Jun-19 01:59N 51°54' W 008°25'0 0.0
2018-Jun-19 01:29N 51°54' W 008°25'0 0.0
2018-Jun-19 00:59N 51°54' W 008°25'0 0.0
2018-Jun-19 00:29N 51°54' W 008°25'0 0.0
2018-Jun-18 23:59N 51°54' W 008°25'0 0.0
2018-Jun-18 23:26N 51°54' W 008°25'0 0.0
2018-Jun-18 22:59N 51°54' W 008°25'0 0.0
2018-Jun-18 22:29N 51°54' W 008°25'0 0.0
2018-Jun-18 21:59N 51°54' W 008°25'0 0.0
2018-Jun-18 21:30N 51°54' W 008°25'2 3.9
2018-Jun-18 21:00N 51°53' W 008°22'3 6.6
2018-Jun-18 20:30N 51°51' W 008°19'2 3.6
2018-Jun-18 20:00N 51°50' W 008°16'3 5.9
2018-Jun-18 19:30N 51°47' W 008°15'3 5.5
2018-Jun-18 19:00N 51°45' W 008°12'4 7.0
2018-Jun-18 18:30N 51°45' W 008°06'4 8.1
2018-Jun-18 18:00N 51°46' W 007°60'4 8.6
2018-Jun-18 17:30N 51°48' W 007°53'5 9.1
2018-Jun-18 17:00N 51°49' W 007°46'510.4
2018-Jun-18 16:30N 51°51' W 007°38'510.9
2018-Jun-18 16:00N 51°52' W 007°30'2910.9
2018-Jun-18 13:23N 52°01' W 006°45'610.8
2018-Jun-18 12:50N 52°03' W 006°36'310.3
2018-Jun-18 12:30N 52°04' W 006°31'510.6
2018-Jun-18 12:00N 52°06' W 006°23'510.1
2018-Jun-18 11:30N 52°07' W 006°15'5 9.4
2018-Jun-18 11:00N 52°10' W 006°09'5 8.8
2018-Jun-18 10:29N 52°14' W 006°05'4 9.1
2018-Jun-18 10:00N 52°18' W 006°01'5 9.6
2018-Jun-18 09:30N 52°22' W 005°57'610.1
2018-Jun-18 08:58N 52°27' W 005°53'14 9.9
2018-Jun-18 07:31N 52°39' W 005°41'0 9.4
2018-Jun-18 07:30N 52°39' W 005°41'5 9.1
2018-Jun-18 07:00N 52°43' W 005°37'4 8.4
2018-Jun-18 06:30N 52°46' W 005°33'4 8.8
2018-Jun-18 06:00N 52°50' W 005°29'611.7
2018-Jun-18 05:30N 52°55' W 005°24'68 9.2
2018-Jun-17 22:09N 53°34' W 003°50'2 9.5
2018-Jun-17 21:54N 53°34' W 003°46'4 9.9
2018-Jun-17 21:30N 53°34' W 003°40'510.2
2018-Jun-17 21:00N 53°34' W 003°31'510.4
2018-Jun-17 20:30N 53°33' W 003°23'611.1
2018-Jun-17 20:00N 53°31' W 003°14'611.2
2018-Jun-17 19:30N 53°29' W 003°05'3 6.1
2018-Jun-17 19:00N 53°27' W 003°01'0 0.5
2018-Jun-17 18:30N 53°27' W 003°01'0 0.6
2018-Jun-17 17:59N 53°28' W 003°01'0 0.0
2018-Jun-17 17:26N 53°28' W 003°01'0 0.0
2018-Jun-17 16:59N 53°28' W 003°01'0 0.0
2018-Jun-17 16:29N 53°28' W 003°01'0 0.0
2018-Jun-17 15:59N 53°28' W 003°01'0 0.0
2018-Jun-17 15:26N 53°28' W 003°01'0 0.0
2018-Jun-17 14:59N 53°28' W 003°01'0 0.0
2018-Jun-17 14:29N 53°28' W 003°01'0 0.0
2018-Jun-17 13:56N 53°28' W 003°01'0 0.0
2018-Jun-17 13:26N 53°28' W 003°01'0 0.0
2018-Jun-17 12:59N 53°28' W 003°01'0 0.0
2018-Jun-17 12:29N 53°28' W 003°01'0 0.0
2018-Jun-17 11:59N 53°28' W 003°01'0 0.0
2018-Jun-17 11:29N 53°28' W 003°01'0 0.6
2018-Jun-17 11:00N 53°27' W 003°01'0 0.7
2018-Jun-17 10:30N 53°27' W 003°01'0 0.3
2018-Jun-17 10:00N 53°27' W 003°01'1 2.1
2018-Jun-17 09:30N 53°27' W 003°03'4 7.2
2018-Jun-17 09:00N 53°30' W 003°06'510.0
2018-Jun-17 08:30N 53°31' W 003°14'5 9.7
2018-Jun-17 08:00N 53°32' W 003°22'4 7.8
2018-Jun-17 07:30N 53°33' W 003°29'4 8.4
2018-Jun-17 07:00N 53°36' W 003°34'4 8.2
2018-Jun-17 06:30N 53°38' W 003°39'4 8.3
2018-Jun-17 06:00N 53°40' W 003°46'610.1
2018-Jun-17 05:22N 53°43' W 003°55'48 9.9
2018-Jun-17 00:31N 54°13' W 004°58'011.1
2018-Jun-17 00:30N 54°14' W 004°58'510.8
2018-Jun-17 00:01N 54°19' W 005°00'510.8
2018-Jun-16 23:31N 54°24' W 005°03'510.8
2018-Jun-16 23:01N 54°29' W 005°05'510.9
2018-Jun-16 22:31N 54°35' W 005°06'510.9
2018-Jun-16 22:01N 54°40' W 005°09'714.3
2018-Jun-16 21:31N 54°47' W 005°11'714.6
2018-Jun-16 21:01N 54°54' W 005°14'815.0
2018-Jun-16 20:29N 55°02' W 005°15'4013.2
2018-Jun-16 17:27N 55°41' W 004°60'612.8
2018-Jun-16 17:00N 55°46' W 004°58'713.2
2018-Jun-16 16:30N 55°53' W 004°56'612.2
2018-Jun-16 16:00N 55°58' W 004°50'3 5.2
2018-Jun-16 15:29N 55°57' W 004°46'0 0.0
2018-Jun-16 14:56N 55°57' W 004°46'0 0.0
2018-Jun-16 14:29N 55°57' W 004°46'0 0.0
2018-Jun-16 13:59N 55°57' W 004°46'0 0.0
2018-Jun-16 13:29N 55°57' W 004°46'0 0.0
2018-Jun-16 12:59N 55°57' W 004°46'0 0.0
2018-Jun-16 12:26N 55°57' W 004°46'0 0.0
2018-Jun-16 11:56N 55°57' W 004°46'0 0.0
2018-Jun-16 11:26N 55°57' W 004°46'0 0.0
2018-Jun-16 10:59N 55°57' W 004°46'0 0.0
2018-Jun-16 10:29N 55°57' W 004°46'0 0.0
2018-Jun-16 09:59N 55°57' W 004°46'0 0.0
2018-Jun-16 09:29N 55°57' W 004°46'0 0.0
2018-Jun-16 08:56N 55°57' W 004°46'0 0.0
2018-Jun-16 08:26N 55°57' W 004°46'0 0.0
2018-Jun-16 07:56N 55°57' W 004°46'0 0.0
2018-Jun-16 07:29N 55°57' W 004°46'0 0.0
2018-Jun-16 06:56N 55°57' W 004°46'0 0.0
2018-Jun-16 06:26N 55°57' W 004°46'0 0.0
2018-Jun-16 05:56N 55°57' W 004°46'0 0.0
2018-Jun-16 05:26N 55°57' W 004°46'0 0.0
2018-Jun-16 04:59N 55°57' W 004°46'0 0.0
2018-Jun-16 04:29N 55°57' W 004°46'0 0.0
2018-Jun-16 03:59N 55°57' W 004°46'0 0.0
2018-Jun-16 03:29N 55°57' W 004°46'0 0.0
2018-Jun-16 02:56N 55°57' W 004°46'0 0.0
2018-Jun-16 02:26N 55°57' W 004°46'0 0.0
2018-Jun-16 01:56N 55°57' W 004°46'0 0.0
2018-Jun-16 01:27N 55°57' W 004°46'2 4.0
2018-Jun-16 01:00N 55°58' W 004°49'4 8.8
2018-Jun-16 00:30N 55°55' W 004°55'511.1
2018-Jun-16 00:00N 55°50' W 004°57'510.4
2018-Jun-15 23:31N 55°45' W 004°59'4010.0
2018-Jun-15 19:32N 55°07' W 005°18'0 9.5
2018-Jun-15 19:30N 55°06' W 005°18'5 9.5
2018-Jun-15 19:00N 55°02' W 005°22'510.0
2018-Jun-15 18:30N 54°58' W 005°26'510.2
2018-Jun-15 18:01N 54°53' W 005°31'612.0
2018-Jun-15 17:30N 54°48' W 005°36'611.7
2018-Jun-15 17:00N 54°43' W 005°40'611.8
2018-Jun-15 16:30N 54°40' W 005°50'2 0.2
2018-Jun-15 02:13N 54°39' W 005°52'2 9.5
2018-Jun-15 02:00N 54°40' W 005°50'5 9.7
2018-Jun-15 01:30N 54°42' W 005°42'612.5
2018-Jun-15 01:00N 54°43' W 005°32'713.6
2018-Jun-15 00:30N 54°38' W 005°25'714.1
2018-Jun-15 00:01N 54°32' W 005°20'713.2
2018-Jun-14 23:31N 54°26' W 005°14'612.7
2018-Jun-14 23:01N 54°20' W 005°09'612.4
2018-Jun-14 22:30N 54°15' W 005°05'5211.0
2018-Jun-14 17:45N 53°43' W 003°54'312.8
2018-Jun-14 17:30N 53°41' W 003°49'612.9
2018-Jun-14 17:00N 53°38' W 003°40'713.3
2018-Jun-14 16:30N 53°35' W 003°30'612.9
2018-Jun-14 16:00N 53°33' W 003°20'5 9.5
2018-Jun-14 15:29N 53°32' W 003°12'612.3
2018-Jun-14 15:00N 53°28' W 003°03'2 3.6
2018-Jun-14 14:30N 53°27' W 003°01'0 0.1
2018-Jun-14 14:00N 53°27' W 003°01'1 1.5
2018-Jun-14 13:29N 53°28' W 003°02'0 0.1
2018-Jun-14 12:59N 53°28' W 003°02'0 0.0
2018-Jun-14 12:29N 53°28' W 003°02'0 0.0
2018-Jun-14 11:56N 53°28' W 003°02'0 0.0
2018-Jun-14 11:29N 53°28' W 003°02'0 0.0
2018-Jun-14 10:59N 53°28' W 003°02'0 0.0
2018-Jun-14 10:29N 53°28' W 003°02'0 0.0
2018-Jun-14 09:59N 53°28' W 003°02'0 0.0
2018-Jun-14 09:29N 53°28' W 003°02'0 0.0
2018-Jun-14 08:59N 53°28' W 003°02'0 0.0
2018-Jun-14 08:29N 53°28' W 003°02'0 0.0
2018-Jun-14 07:59N 53°28' W 003°02'0 0.0
2018-Jun-14 07:23N 53°28' W 003°02'0 0.0
2018-Jun-14 06:59N 53°28' W 003°02'0 0.0
2018-Jun-14 06:29N 53°28' W 003°02'0 0.0
2018-Jun-14 05:59N 53°28' W 003°02'0 0.0
2018-Jun-14 05:29N 53°28' W 003°02'0 0.0
2018-Jun-14 04:59N 53°28' W 003°02'0 0.0
2018-Jun-14 04:29N 53°28' W 003°02'0 0.0
2018-Jun-14 03:59N 53°28' W 003°02'0 0.0
2018-Jun-14 03:29N 53°28' W 003°02'0 0.0
2018-Jun-14 02:53N 53°28' W 003°02'0 0.0
2018-Jun-14 02:23N 53°28' W 003°02'0 0.0
2018-Jun-14 01:59N 53°28' W 003°02'0 0.0
2018-Jun-14 01:29N 53°28' W 003°02'0 0.0
2018-Jun-14 00:56N 53°28' W 003°02'0 0.0
2018-Jun-14 00:23N 53°28' W 003°02'0 0.0
2018-Jun-13 23:53N 53°28' W 003°02'0 0.0
2018-Jun-13 23:29N 53°28' W 003°02'0 0.0
2018-Jun-13 22:59N 53°28' W 003°02'0 0.0
2018-Jun-13 22:29N 53°28' W 003°02'0 0.0
2018-Jun-13 21:59N 53°28' W 003°02'0 0.0
2018-Jun-13 21:26N 53°28' W 003°02'0 0.0
2018-Jun-13 20:59N 53°28' W 003°02'0 0.0
2018-Jun-13 20:26N 53°28' W 003°02'0 0.0
2018-Jun-13 19:59N 53°28' W 003°02'0 0.0
2018-Jun-13 19:29N 53°28' W 003°02'0 0.0
2018-Jun-13 18:55N 53°28' W 003°02'0 0.0
2018-Jun-13 18:28N 53°28' W 003°02'0 0.0
2018-Jun-13 17:58N 53°28' W 003°02'0 0.0
2018-Jun-13 17:28N 53°28' W 003°02'0 0.0
2018-Jun-13 16:58N 53°28' W 003°02'0 0.0
2018-Jun-13 16:25N 53°28' W 003°02'0 0.0
2018-Jun-13 15:58N 53°28' W 003°02'0 0.0
2018-Jun-13 15:25N 53°28' W 003°02'0 0.0
2018-Jun-13 14:55N 53°28' W 003°02'0 0.0
2018-Jun-13 14:28N 53°28' W 003°02'0 0.0
2018-Jun-13 13:58N 53°28' W 003°02'0 0.0
2018-Jun-13 13:28N 53°28' W 003°02'0 0.0
2018-Jun-13 12:58N 53°28' W 003°02'0 0.0
2018-Jun-13 12:25N 53°28' W 003°02'0 0.0
2018-Jun-13 11:58N 53°28' W 003°02'0 0.2
2018-Jun-13 11:30N 53°28' W 003°02'1 1.5
2018-Jun-13 11:00N 53°27' W 003°01'0 0.9
2018-Jun-13 10:30N 53°27' W 003°01'3 6.2
2018-Jun-13 10:00N 53°29' W 003°05'5 9.9
2018-Jun-13 09:30N 53°31' W 003°12'511.2
2018-Jun-13 09:00N 53°31' W 003°21'5 9.7
2018-Jun-13 08:30N 53°31' W 003°29'510.2
2018-Jun-13 08:00N 53°31' W 003°38'611.1
2018-Jun-13 07:30N 53°31' W 003°47'511.0
2018-Jun-13 07:00N 53°31' W 003°56'4910.1
2018-Jun-13 02:11N 53°22' W 005°17'210.5
2018-Jun-13 01:58N 53°22' W 005°21'511.3
2018-Jun-13 01:30N 53°22' W 005°30'611.9
2018-Jun-13 01:00N 53°22' W 005°40'612.1
2018-Jun-13 00:30N 53°22' W 005°50'511.0
2018-Jun-13 00:00N 53°21' W 005°59'  

Dump ship's entire track history